createdAt,value
2019-02-14T00:00:35.001Z,0.00
2019-02-14T00:01:34.972Z,0.00
2019-02-14T00:02:34.943Z,0.00
2019-02-14T00:03:34.946Z,0.00
2019-02-14T00:04:34.893Z,0.00
2019-02-14T00:05:34.883Z,0.00
2019-02-14T00:06:34.853Z,0.00
2019-02-14T00:07:34.827Z,0.00
2019-02-14T00:08:34.805Z,0.00
2019-02-14T00:09:34.800Z,0.00
2019-02-14T00:10:34.759Z,0.00
2019-02-14T00:11:34.750Z,0.00
2019-02-14T00:12:34.716Z,0.00
2019-02-14T00:13:34.697Z,0.00
2019-02-14T00:14:34.689Z,0.00
2019-02-14T00:15:34.649Z,0.00
2019-02-14T00:16:34.621Z,0.00
2019-02-14T00:17:34.602Z,0.00
2019-02-14T00:18:34.581Z,0.00
2019-02-14T00:19:34.554Z,0.00
2019-02-14T00:20:34.551Z,0.00
2019-02-14T00:21:34.512Z,0.00
2019-02-14T00:22:34.488Z,0.00
2019-02-14T00:23:34.467Z,0.00
2019-02-14T00:24:34.447Z,0.00
2019-02-14T00:25:34.430Z,0.00
2019-02-14T00:26:34.428Z,0.00
2019-02-14T00:27:34.392Z,0.00
2019-02-14T00:28:34.348Z,0.00
2019-02-14T00:29:34.324Z,0.00
2019-02-14T00:30:34.308Z,0.00
2019-02-14T00:31:34.285Z,0.00
2019-02-14T00:32:34.299Z,0.00
2019-02-14T00:33:34.238Z,0.00
2019-02-14T00:34:34.216Z,0.00
2019-02-14T00:35:34.193Z,0.00
2019-02-14T00:36:34.186Z,0.00
2019-02-14T00:37:34.162Z,0.00
2019-02-14T00:38:34.145Z,0.00
2019-02-14T00:39:34.102Z,0.00
2019-02-14T00:40:34.089Z,0.00
2019-02-14T00:41:34.109Z,0.00
2019-02-14T00:42:34.052Z,0.00
2019-02-14T00:43:34.016Z,0.00
2019-02-14T00:44:33.989Z,0.00
2019-02-14T00:45:34.772Z,0.00
2019-02-14T00:46:33.946Z,0.00
2019-02-14T00:47:33.930Z,0.00
2019-02-14T00:48:33.925Z,0.00
2019-02-14T00:49:33.876Z,0.00
2019-02-14T00:50:33.863Z,0.00
2019-02-14T00:51:33.844Z,0.00
2019-02-14T00:52:33.804Z,0.00
2019-02-14T00:53:33.914Z,0.00
2019-02-14T00:54:33.774Z,0.00
2019-02-14T00:55:35.600Z,0.00
2019-02-14T00:56:33.717Z,0.00
2019-02-14T00:57:33.707Z,0.00
2019-02-14T00:58:33.672Z,0.00
2019-02-14T00:59:33.663Z,0.00
2019-02-14T01:00:33.626Z,0.00
2019-02-14T01:01:33.603Z,0.00
2019-02-14T01:02:33.581Z,0.00
2019-02-14T01:03:33.560Z,0.00
2019-02-14T01:04:33.557Z,0.00
2019-02-14T01:05:33.949Z,0.00
2019-02-14T01:06:33.489Z,0.00
2019-02-14T01:07:33.469Z,0.00
2019-02-14T01:08:33.457Z,0.00
2019-02-14T01:09:33.445Z,0.00
2019-02-14T01:10:33.404Z,0.00
2019-02-14T01:11:33.390Z,0.00
2019-02-14T01:12:33.356Z,0.00
2019-02-14T01:13:33.335Z,0.00
2019-02-14T01:14:33.311Z,0.00
2019-02-14T01:15:33.304Z,0.00
2019-02-14T01:16:33.275Z,0.00
2019-02-14T01:17:33.249Z,0.00
2019-02-14T01:18:33.217Z,0.00
2019-02-14T01:19:33.194Z,0.00
2019-02-14T01:20:33.169Z,0.00
2019-02-14T01:21:33.185Z,0.00
2019-02-14T01:22:33.132Z,0.00
2019-02-14T01:23:33.112Z,0.00
2019-02-14T01:24:33.081Z,0.00
2019-02-14T01:25:33.061Z,0.00
2019-02-14T01:26:33.037Z,0.00
2019-02-14T01:27:33.037Z,0.00
2019-02-14T01:28:32.991Z,0.00
2019-02-14T01:29:32.966Z,0.00
2019-02-14T01:30:32.946Z,0.00
2019-02-14T01:31:32.924Z,0.00
2019-02-14T01:32:32.896Z,0.00
2019-02-14T01:33:32.890Z,0.00
2019-02-14T01:34:32.849Z,0.00
2019-02-14T01:35:32.831Z,0.00
2019-02-14T01:36:32.896Z,0.00
2019-02-14T01:37:32.784Z,0.00
2019-02-14T01:38:32.780Z,0.00
2019-02-14T01:39:32.743Z,0.00
2019-02-14T01:40:32.715Z,0.00
2019-02-14T01:41:32.693Z,0.00
2019-02-14T01:42:32.671Z,0.00
2019-02-14T01:43:32.646Z,0.00
2019-02-14T01:44:32.640Z,0.00
2019-02-14T01:45:32.602Z,0.00
2019-02-14T01:46:32.582Z,0.00
2019-02-14T01:47:32.559Z,0.00
2019-02-14T01:48:32.535Z,0.00
2019-02-14T01:49:32.531Z,0.00
2019-02-14T01:50:32.489Z,0.00
2019-02-14T01:51:32.461Z,0.00
2019-02-14T01:52:32.444Z,0.00
2019-02-14T01:53:32.429Z,0.00
2019-02-14T01:54:32.415Z,0.00
2019-02-14T01:55:32.642Z,0.00
2019-02-14T01:56:32.373Z,0.00
2019-02-14T01:57:32.332Z,0.00
2019-02-14T01:58:32.304Z,0.00
2019-02-14T01:59:32.279Z,0.00
2019-02-14T02:00:32.267Z,0.00
2019-02-14T02:01:32.253Z,0.00
2019-02-14T02:02:32.215Z,0.00
2019-02-14T02:03:32.211Z,0.00
2019-02-14T02:04:32.178Z,0.00
2019-02-14T02:05:32.154Z,0.00
2019-02-14T02:06:32.125Z,0.00
2019-02-14T02:07:32.192Z,0.00
2019-02-14T02:08:32.082Z,0.00
2019-02-14T02:09:32.070Z,0.00
2019-02-14T02:10:32.031Z,0.00
2019-02-14T02:11:32.009Z,0.00
2019-02-14T02:12:31.986Z,0.00
2019-02-14T02:13:31.970Z,0.00
2019-02-14T02:14:31.963Z,0.00
2019-02-14T02:15:31.915Z,0.00
2019-02-14T02:16:31.896Z,0.00
2019-02-14T02:17:31.875Z,0.00
2019-02-14T02:18:31.851Z,0.00
2019-02-14T02:19:31.855Z,0.00
2019-02-14T02:20:33.379Z,0.00
2019-02-14T02:21:31.782Z,0.00
2019-02-14T02:22:31.760Z,0.00
2019-02-14T02:23:31.738Z,0.00
2019-02-14T02:24:31.719Z,0.00
2019-02-14T02:25:31.710Z,0.00
2019-02-14T02:26:31.666Z,0.00
2019-02-14T02:27:31.722Z,0.00
2019-02-14T02:28:31.625Z,0.00
2019-02-14T02:29:31.593Z,0.00
2019-02-14T02:30:31.611Z,0.00
2019-02-14T02:31:31.550Z,0.00
2019-02-14T02:32:31.530Z,0.00
2019-02-14T02:33:31.508Z,0.00
2019-02-14T02:34:31.484Z,0.00
2019-02-14T02:35:31.461Z,0.00
2019-02-14T02:36:31.455Z,0.00
2019-02-14T02:37:31.416Z,0.00
2019-02-14T02:38:31.396Z,0.00
2019-02-14T02:39:32.146Z,0.00
2019-02-14T02:40:31.346Z,0.00
2019-02-14T02:41:31.349Z,0.00
2019-02-14T02:42:31.298Z,0.00
2019-02-14T02:43:32.112Z,0.00
2019-02-14T02:44:31.253Z,0.00
2019-02-14T02:45:31.232Z,0.00
2019-02-14T02:46:31.221Z,0.00
2019-02-14T02:47:31.178Z,0.00
2019-02-14T02:48:31.176Z,0.00
2019-02-14T02:49:31.137Z,0.00
2019-02-14T02:50:31.111Z,0.00
2019-02-14T02:51:31.156Z,0.00
2019-02-14T02:52:31.068Z,0.00
2019-02-14T02:53:31.057Z,0.00
2019-02-14T02:54:31.020Z,0.00
2019-02-14T02:55:30.999Z,0.00
2019-02-14T02:56:30.977Z,0.00
2019-02-14T02:57:30.952Z,0.00
2019-02-14T02:58:30.945Z,0.00
2019-02-14T02:59:30.905Z,0.00
2019-02-14T03:00:30.883Z,0.00
2019-02-14T03:01:30.861Z,0.00
2019-02-14T03:02:30.839Z,0.00
2019-02-14T03:03:30.811Z,0.00
2019-02-14T03:04:30.805Z,0.00
2019-02-14T03:05:30.771Z,0.00
2019-02-14T03:06:30.746Z,0.00
2019-02-14T03:07:30.720Z,0.00
2019-02-14T03:08:30.701Z,0.00
2019-02-14T03:09:30.755Z,0.00
2019-02-14T03:10:30.660Z,0.00
2019-02-14T03:11:30.646Z,0.00
2019-02-14T03:12:30.602Z,0.00
2019-02-14T03:13:30.582Z,0.00
2019-02-14T03:14:30.555Z,0.00
2019-02-14T03:15:30.544Z,0.00
2019-02-14T03:16:30.514Z,0.00
2019-02-14T03:17:30.508Z,0.00
2019-02-14T03:18:30.467Z,0.00
2019-02-14T03:19:30.446Z,0.00
2019-02-14T03:20:30.421Z,0.00
2019-02-14T03:21:30.395Z,0.00
2019-02-14T03:22:30.404Z,0.00
2019-02-14T03:23:30.349Z,0.00
2019-02-14T03:24:30.324Z,0.00
2019-02-14T03:25:30.303Z,0.00
2019-02-14T03:26:30.278Z,0.00
2019-02-14T03:27:30.275Z,0.00
2019-02-14T03:28:30.250Z,0.00
2019-02-14T03:29:30.209Z,0.00
2019-02-14T03:30:30.189Z,0.00
2019-02-14T03:31:30.165Z,0.00
2019-02-14T03:32:30.143Z,0.00
2019-02-14T03:33:30.133Z,0.00
2019-02-14T03:34:30.148Z,0.00
2019-02-14T03:35:30.095Z,0.00
2019-02-14T03:36:30.044Z,0.00
2019-02-14T03:37:30.023Z,0.00
2019-02-14T03:38:30.017Z,0.00
2019-02-14T03:39:29.995Z,0.00
2019-02-14T03:40:29.957Z,0.00
2019-02-14T03:41:29.941Z,0.00
2019-02-14T03:42:29.954Z,0.00
2019-02-14T03:43:29.887Z,0.00
2019-02-14T03:44:29.859Z,0.00
2019-02-14T03:45:29.857Z,0.00
2019-02-14T03:46:29.811Z,0.00
2019-02-14T03:47:29.787Z,0.00
2019-02-14T03:48:29.768Z,0.00
2019-02-14T03:49:29.745Z,0.00
2019-02-14T03:50:29.740Z,0.00
2019-02-14T03:51:29.698Z,0.00
2019-02-14T03:52:29.675Z,0.00
2019-02-14T03:53:29.650Z,0.00
2019-02-14T03:54:30.617Z,0.00
2019-02-14T03:55:29.654Z,0.00
2019-02-14T03:56:29.600Z,0.00
2019-02-14T03:57:29.560Z,0.00
2019-02-14T03:58:29.535Z,0.00
2019-02-14T03:59:29.515Z,0.00
2019-02-14T04:00:29.503Z,0.00
2019-02-14T04:01:29.483Z,0.00
2019-02-14T04:02:29.446Z,0.00
2019-02-14T04:03:29.416Z,0.00
2019-02-14T04:04:29.395Z,0.00
2019-02-14T04:05:29.374Z,0.00
2019-02-14T04:06:29.353Z,0.00
2019-02-14T04:07:29.345Z,0.00
2019-02-14T04:08:29.300Z,0.00
2019-02-14T04:09:29.279Z,0.00
2019-02-14T04:10:29.267Z,0.00
2019-02-14T04:11:29.233Z,0.00
2019-02-14T04:12:29.207Z,0.00
2019-02-14T04:13:29.203Z,0.00
2019-02-14T04:14:29.169Z,0.00
2019-02-14T04:15:29.140Z,0.00
2019-02-14T04:16:29.114Z,0.00
2019-02-14T04:17:29.704Z,0.00
2019-02-14T04:18:29.066Z,0.00
2019-02-14T04:19:29.043Z,0.00
2019-02-14T04:20:29.026Z,0.00
2019-02-14T04:21:29.665Z,0.00
2019-02-14T04:22:28.989Z,0.00
2019-02-14T04:23:28.963Z,0.00
2019-02-14T04:24:28.929Z,0.00
2019-02-14T04:25:28.906Z,0.00
2019-02-14T04:26:28.879Z,0.00
2019-02-14T04:27:28.874Z,0.00
2019-02-14T04:28:28.833Z,0.00
2019-02-14T04:29:28.808Z,0.00
2019-02-14T04:30:28.803Z,0.00
2019-02-14T04:31:28.764Z,0.00
2019-02-14T04:32:28.739Z,0.00
2019-02-14T04:33:28.714Z,0.00
2019-02-14T04:34:28.694Z,0.00
2019-02-14T04:35:28.689Z,0.00
2019-02-14T04:36:35.817Z,0.00
2019-02-14T04:37:29.135Z,0.00
2019-02-14T04:38:29.118Z,0.00
2019-02-14T04:39:28.592Z,0.00
2019-02-14T04:40:33.518Z,0.00
2019-02-14T04:41:28.547Z,0.00
2019-02-14T04:42:28.526Z,0.00
2019-02-14T04:43:28.480Z,0.00
2019-02-14T04:44:28.464Z,0.00
2019-02-14T04:45:28.631Z,0.00
2019-02-14T04:46:28.413Z,0.00
2019-02-14T04:47:28.390Z,0.00
2019-02-14T04:48:28.384Z,0.00
2019-02-14T04:49:28.345Z,0.00
2019-02-14T04:50:28.324Z,0.00
2019-02-14T04:51:28.298Z,0.00
2019-02-14T04:52:28.269Z,0.00
2019-02-14T04:53:28.271Z,0.00
2019-02-14T04:54:28.226Z,0.00
2019-02-14T04:55:29.158Z,0.00
2019-02-14T04:56:28.183Z,0.00
2019-02-14T04:57:28.157Z,0.00
2019-02-14T04:58:28.132Z,0.00
2019-02-14T04:59:28.131Z,0.00
2019-02-14T05:00:28.091Z,0.00
2019-02-14T05:01:28.063Z,0.00
2019-02-14T05:02:28.036Z,0.00
2019-02-14T05:03:29.620Z,0.00
2019-02-14T05:04:27.993Z,0.00
2019-02-14T05:05:27.994Z,0.00
2019-02-14T05:06:29.621Z,0.00
2019-02-14T05:07:27.925Z,0.00
2019-02-14T05:08:27.911Z,0.00
2019-02-14T05:09:27.879Z,0.00
2019-02-14T05:10:27.852Z,0.00
2019-02-14T05:11:27.829Z,0.00
2019-02-14T05:12:27.809Z,0.00
2019-02-14T05:13:27.793Z,0.00
2019-02-14T05:14:28.642Z,0.00
2019-02-14T05:15:27.750Z,0.00
2019-02-14T05:16:27.712Z,0.00
2019-02-14T05:17:27.690Z,0.00
2019-02-14T05:18:28.621Z,0.00
2019-02-14T05:19:27.656Z,0.00
2019-02-14T05:20:27.633Z,0.00
2019-02-14T05:21:27.594Z,0.00
2019-02-14T05:22:28.168Z,0.00
2019-02-14T05:23:27.555Z,0.00
2019-02-14T05:24:27.541Z,0.00
2019-02-14T05:25:27.500Z,0.00
2019-02-14T05:26:27.488Z,0.00
2019-02-14T05:27:27.491Z,0.00
2019-02-14T05:28:27.479Z,0.00
2019-02-14T05:29:27.404Z,0.00
2019-02-14T05:30:27.383Z,0.00
2019-02-14T05:31:27.358Z,0.00
2019-02-14T05:32:27.343Z,0.00
2019-02-14T05:33:27.342Z,0.00
2019-02-14T05:34:27.288Z,0.00
2019-02-14T05:35:27.271Z,0.00
2019-02-14T05:36:27.249Z,0.00
2019-02-14T05:37:27.241Z,0.00
2019-02-14T05:38:27.192Z,0.00
2019-02-14T05:39:27.291Z,0.00
2019-02-14T05:40:27.158Z,0.00
2019-02-14T05:41:27.137Z,0.00
2019-02-14T05:42:27.216Z,0.00
2019-02-14T05:43:27.203Z,0.00
2019-02-14T05:44:28.210Z,0.00
2019-02-14T05:45:27.036Z,0.00
2019-02-14T05:46:27.187Z,0.00
2019-02-14T05:47:27.628Z,0.00
2019-02-14T05:48:27.015Z,0.00
2019-02-14T05:49:27.668Z,0.00
2019-02-14T05:50:26.916Z,0.00
2019-02-14T05:51:26.890Z,0.00
2019-02-14T05:52:26.875Z,0.00
2019-02-14T05:53:26.854Z,0.00
2019-02-14T05:54:26.902Z,0.00
2019-02-14T05:55:26.804Z,0.00
2019-02-14T05:56:26.816Z,0.00
2019-02-14T05:57:27.439Z,0.00
2019-02-14T05:58:26.725Z,0.00
2019-02-14T05:59:26.703Z,0.00
2019-02-14T06:00:26.684Z,0.00
2019-02-14T06:01:26.662Z,0.00
2019-02-14T06:02:26.647Z,0.00
2019-02-14T06:03:26.606Z,0.00
2019-02-14T06:04:26.611Z,0.00
2019-02-14T06:05:26.611Z,0.00
2019-02-14T06:06:26.546Z,0.00
2019-02-14T06:07:26.532Z,0.00
2019-02-14T06:08:26.491Z,0.00
2019-02-14T06:09:26.558Z,0.00
2019-02-14T06:10:27.207Z,0.00
2019-02-14T06:11:26.425Z,0.00
2019-02-14T06:12:26.424Z,0.00
2019-02-14T06:13:26.372Z,0.00
2019-02-14T06:14:27.126Z,0.00
2019-02-14T06:15:26.327Z,0.00
2019-02-14T06:16:26.305Z,0.00
2019-02-14T06:17:26.321Z,0.00
2019-02-14T06:18:26.283Z,0.00
2019-02-14T06:19:26.235Z,0.00
2019-02-14T06:20:26.220Z,0.00
2019-02-14T06:21:26.192Z,0.00
2019-02-14T06:22:26.180Z,4.00
2019-02-14T06:23:26.141Z,4.00
2019-02-14T06:24:26.128Z,4.00
2019-02-14T06:25:26.094Z,4.00
2019-02-14T06:26:26.080Z,4.00
2019-02-14T06:27:26.073Z,4.00
2019-02-14T06:28:26.024Z,4.00
2019-02-14T06:29:26.029Z,4.00
2019-02-14T06:30:25.975Z,8.00
2019-02-14T06:31:26.635Z,12.00
2019-02-14T06:32:25.925Z,12.00
2019-02-14T06:33:25.930Z,12.00
2019-02-14T06:34:25.887Z,16.00
2019-02-14T06:35:25.860Z,20.00
2019-02-14T06:36:25.837Z,20.00
2019-02-14T06:37:25.817Z,24.00
2019-02-14T06:38:25.812Z,28.00
2019-02-14T06:39:25.765Z,32.00
2019-02-14T06:40:25.745Z,36.00
2019-02-14T06:41:25.721Z,44.00
2019-02-14T06:42:25.695Z,48.00
2019-02-14T06:43:25.672Z,60.00
2019-02-14T06:44:25.682Z,64.00
2019-02-14T06:45:25.623Z,72.00
2019-02-14T06:46:26.203Z,80.00
2019-02-14T06:47:25.577Z,88.00
2019-02-14T06:48:25.552Z,96.00
2019-02-14T06:49:25.536Z,108.00
2019-02-14T06:50:25.538Z,116.00
2019-02-14T06:51:25.517Z,128.00
2019-02-14T06:52:25.505Z,140.00
2019-02-14T06:53:25.490Z,148.00
2019-02-14T06:54:25.503Z,160.00
2019-02-14T06:55:25.729Z,172.00
2019-02-14T06:56:25.486Z,184.00
2019-02-14T06:57:25.491Z,196.00
2019-02-14T06:58:25.489Z,212.00
2019-02-14T06:59:25.299Z,224.00
2019-02-14T07:00:25.275Z,240.00
2019-02-14T07:01:25.268Z,252.00
2019-02-14T07:02:25.247Z,264.00
2019-02-14T07:03:25.205Z,280.00
2019-02-14T07:04:25.180Z,300.00
2019-02-14T07:05:25.155Z,312.00
2019-02-14T07:06:25.131Z,332.00
2019-02-14T07:07:25.124Z,344.00
2019-02-14T07:08:25.134Z,364.00
2019-02-14T07:09:25.084Z,380.00
2019-02-14T07:10:25.040Z,396.00
2019-02-14T07:11:25.026Z,416.00
2019-02-14T07:12:25.002Z,432.00
2019-02-14T07:13:24.984Z,448.00
2019-02-14T07:14:25.710Z,460.00
2019-02-14T07:15:24.923Z,480.00
2019-02-14T07:16:24.898Z,492.00
2019-02-14T07:17:24.878Z,504.00
2019-02-14T07:18:24.850Z,516.00
2019-02-14T07:19:25.725Z,528.00
2019-02-14T07:20:24.804Z,544.00
2019-02-14T07:21:24.778Z,560.00
2019-02-14T07:22:24.757Z,580.00
2019-02-14T07:23:24.741Z,592.00
2019-02-14T07:24:24.729Z,612.00
2019-02-14T07:25:24.682Z,616.00
2019-02-14T07:26:24.691Z,632.00
2019-02-14T07:27:24.645Z,644.00
2019-02-14T07:28:24.620Z,656.00
2019-02-14T07:29:24.603Z,668.00
2019-02-14T07:30:24.590Z,680.00
2019-02-14T07:31:24.551Z,692.00
2019-02-14T07:32:24.521Z,700.00
2019-02-14T07:33:25.165Z,712.00
2019-02-14T07:34:24.487Z,724.00
2019-02-14T07:35:24.453Z,736.00
2019-02-14T07:36:24.446Z,744.00
2019-02-14T07:37:26.905Z,756.00
2019-02-14T07:38:24.379Z,768.00
2019-02-14T07:39:24.361Z,776.00
2019-02-14T07:40:24.334Z,788.00
2019-02-14T07:41:24.331Z,796.00
2019-02-14T07:42:24.290Z,804.00
2019-02-14T07:43:24.271Z,812.00
2019-02-14T07:44:24.244Z,820.00
2019-02-14T07:45:24.216Z,828.00
2019-02-14T07:46:24.225Z,844.00
2019-02-14T07:47:24.180Z,852.00
2019-02-14T07:48:24.151Z,860.00
2019-02-14T07:49:24.123Z,868.00
2019-02-14T07:50:24.104Z,872.00
2019-02-14T07:51:24.080Z,860.00
2019-02-14T07:52:25.325Z,840.00
2019-02-14T07:53:24.044Z,848.00
2019-02-14T07:54:24.005Z,860.00
2019-02-14T07:55:23.994Z,888.00
2019-02-14T07:56:23.983Z,916.00
2019-02-14T07:57:23.962Z,928.00
2019-02-14T07:58:23.949Z,944.00
2019-02-14T07:59:23.893Z,952.00
2019-02-14T08:00:23.870Z,964.00
2019-02-14T08:01:37.942Z,972.00
2019-02-14T08:02:23.820Z,980.00
2019-02-14T08:03:23.796Z,992.00
2019-02-14T08:04:23.800Z,1004.00
2019-02-14T08:05:23.752Z,1012.00
2019-02-14T08:06:23.725Z,1024.00
2019-02-14T08:07:23.710Z,1032.00
2019-02-14T08:08:23.679Z,1040.00
2019-02-14T08:09:23.679Z,1044.00
2019-02-14T08:10:23.640Z,1048.00
2019-02-14T08:11:23.613Z,1052.00
2019-02-14T08:12:23.593Z,1056.00
2019-02-14T08:13:25.638Z,1064.00
2019-02-14T08:14:23.547Z,1064.00
2019-02-14T08:15:23.537Z,1068.00
2019-02-14T08:16:23.518Z,1076.00
2019-02-14T08:17:23.476Z,1080.00
2019-02-14T08:18:23.457Z,1084.00
2019-02-14T08:19:23.433Z,1088.00
2019-02-14T08:20:23.410Z,1096.00
2019-02-14T08:21:23.403Z,1100.00
2019-02-14T08:22:23.372Z,1104.00
2019-02-14T08:23:23.339Z,1108.00
2019-02-14T08:24:23.317Z,1116.00
2019-02-14T08:25:23.306Z,1124.00
2019-02-14T08:26:23.284Z,1132.00
2019-02-14T08:27:23.253Z,1132.00
2019-02-14T08:28:23.222Z,1136.00
2019-02-14T08:29:23.203Z,1144.00
2019-02-14T08:30:23.190Z,1152.00
2019-02-14T08:31:23.166Z,1156.00
2019-02-14T08:32:23.134Z,1156.00
2019-02-14T08:33:23.110Z,1164.00
2019-02-14T08:34:23.082Z,1164.00
2019-02-14T08:35:23.057Z,1172.00
2019-02-14T08:36:23.061Z,1180.00
2019-02-14T08:37:23.043Z,1184.00
2019-02-14T08:38:22.993Z,1192.00
2019-02-14T08:39:22.966Z,1200.00
2019-02-14T08:40:22.950Z,1204.00
2019-02-14T08:41:22.925Z,1216.00
2019-02-14T08:42:22.901Z,1224.00
2019-02-14T08:43:22.896Z,1232.00
2019-02-14T08:44:22.854Z,1232.00
2019-02-14T08:45:22.830Z,1236.00
2019-02-14T08:46:22.810Z,1240.00
2019-02-14T08:47:22.795Z,1248.00
2019-02-14T08:48:22.782Z,1256.00
2019-02-14T08:49:22.736Z,1260.00
2019-02-14T08:50:22.716Z,1264.00
2019-02-14T08:51:22.693Z,1268.00
2019-02-14T08:52:22.673Z,1264.00
2019-02-14T08:53:22.661Z,1272.00
2019-02-14T08:54:22.641Z,1280.00
2019-02-14T08:55:22.608Z,1288.00
2019-02-14T08:56:22.583Z,1296.00
2019-02-14T08:57:22.560Z,1296.00
2019-02-14T08:58:22.536Z,1292.00
2019-02-14T08:59:22.538Z,1292.00
2019-02-14T09:00:22.491Z,1288.00
2019-02-14T09:01:22.480Z,1264.00
2019-02-14T09:02:22.442Z,1236.00
2019-02-14T09:03:22.421Z,1248.00
2019-02-14T09:04:22.405Z,1228.00
2019-02-14T09:05:22.392Z,1220.00
2019-02-14T09:06:22.359Z,1252.00
2019-02-14T09:07:22.331Z,1264.00
2019-02-14T09:08:22.310Z,1284.00
2019-02-14T09:09:22.288Z,1284.00
2019-02-14T09:10:22.287Z,1352.00
2019-02-14T09:11:22.245Z,1376.00
2019-02-14T09:12:22.218Z,1408.00
2019-02-14T09:13:22.198Z,1460.00
2019-02-14T09:14:22.180Z,1524.00
2019-02-14T09:15:22.153Z,1552.00
2019-02-14T09:16:22.150Z,1544.00
2019-02-14T09:17:22.126Z,1524.00
2019-02-14T09:18:22.088Z,1512.00
2019-02-14T09:19:22.070Z,1512.00
2019-02-14T09:20:22.043Z,1512.00
2019-02-14T09:21:22.040Z,1516.00
2019-02-14T09:22:22.001Z,1504.00
2019-02-14T09:23:21.997Z,1512.00
2019-02-14T09:24:21.962Z,1540.00
2019-02-14T09:25:21.944Z,1544.00
2019-02-14T09:26:21.911Z,1612.00
2019-02-14T09:27:21.904Z,1680.00
2019-02-14T09:28:21.896Z,1636.00
2019-02-14T09:29:21.837Z,1668.00
2019-02-14T09:30:21.827Z,1564.00
2019-02-14T09:31:21.811Z,1572.00
2019-02-14T09:32:22.673Z,1632.00
2019-02-14T09:33:21.761Z,1704.00
2019-02-14T09:34:21.747Z,1804.00
2019-02-14T09:35:21.711Z,1904.00
2019-02-14T09:36:21.689Z,2008.00
2019-02-14T09:37:21.666Z,2156.00
2019-02-14T09:38:22.186Z,2204.00
2019-02-14T09:39:21.622Z,2232.00
2019-02-14T09:40:21.618Z,2284.00
2019-02-14T09:41:21.576Z,2456.00
2019-02-14T09:42:21.568Z,2452.00
2019-02-14T09:43:29.572Z,2500.00
2019-02-14T09:44:21.515Z,2620.00
2019-02-14T09:45:21.518Z,2588.00
2019-02-14T09:46:21.468Z,2572.00
2019-02-14T09:47:21.448Z,2604.00
2019-02-14T09:48:21.425Z,2724.00
2019-02-14T09:49:22.187Z,2844.00
2019-02-14T09:50:21.468Z,2856.00
2019-02-14T09:51:21.369Z,2844.00
2019-02-14T09:52:21.342Z,2768.00
2019-02-14T09:53:21.339Z,2856.00
2019-02-14T09:54:21.302Z,2904.00
2019-02-14T09:55:21.289Z,3016.00
2019-02-14T09:56:21.252Z,3188.00
2019-02-14T09:57:21.231Z,3384.00
2019-02-14T09:58:22.645Z,3516.00
2019-02-14T09:59:21.197Z,3600.00
2019-02-14T10:00:21.191Z,3504.00
2019-02-14T10:01:21.164Z,3524.00
2019-02-14T10:02:21.129Z,3460.00
2019-02-14T10:03:21.102Z,3504.00
2019-02-14T10:04:21.093Z,3392.00
2019-02-14T10:05:22.173Z,3484.00
2019-02-14T10:06:21.087Z,3532.00
2019-02-14T10:07:21.040Z,3524.00
2019-02-14T10:08:20.998Z,3488.00
2019-02-14T10:09:20.985Z,3412.00
2019-02-14T10:10:20.967Z,3384.00
2019-02-14T10:11:20.966Z,3432.00
2019-02-14T10:12:20.953Z,3376.00
2019-02-14T10:13:20.895Z,3452.00
2019-02-14T10:14:20.878Z,3432.00
2019-02-14T10:15:20.865Z,3464.00
2019-02-14T10:16:20.835Z,3472.00
2019-02-14T10:17:22.240Z,3488.00
2019-02-14T10:18:20.829Z,3420.00
2019-02-14T10:19:20.795Z,3524.00
2019-02-14T10:20:20.764Z,3520.00
2019-02-14T10:21:20.731Z,3320.00
2019-02-14T10:22:20.716Z,3396.00
2019-02-14T10:23:20.691Z,3352.00
2019-02-14T10:24:20.688Z,3340.00
2019-02-14T10:25:20.651Z,3344.00
2019-02-14T10:26:20.630Z,3324.00
2019-02-14T10:27:20.611Z,3256.00
2019-02-14T10:28:20.591Z,3296.00
2019-02-14T10:29:20.584Z,3352.00
2019-02-14T10:30:20.549Z,3344.00
2019-02-14T10:31:20.531Z,3368.00
2019-02-14T10:32:20.514Z,3360.00
2019-02-14T10:33:20.505Z,3428.00
2019-02-14T10:34:20.471Z,3700.00
2019-02-14T10:35:20.452Z,3808.00
2019-02-14T10:36:20.427Z,3976.00
2019-02-14T10:37:20.412Z,4020.00
2019-02-14T10:38:22.625Z,4196.00
2019-02-14T10:39:20.392Z,4148.00
2019-02-14T10:40:20.348Z,4116.00
2019-02-14T10:41:20.326Z,4152.00
2019-02-14T10:42:20.307Z,4324.00
2019-02-14T10:43:20.292Z,4528.00
2019-02-14T10:44:20.285Z,4560.00
2019-02-14T10:45:20.268Z,4708.00
2019-02-14T10:46:20.251Z,4760.00
2019-02-14T10:47:20.228Z,4884.00
2019-02-14T10:48:20.190Z,4808.00
2019-02-14T10:49:20.177Z,4696.00
2019-02-14T10:50:20.174Z,5100.00
2019-02-14T10:53:02.120Z,5056.00
2019-02-14T10:54:02.107Z,5800.00
2019-02-14T10:55:02.080Z,8148.00
2019-02-14T10:56:02.079Z,8096.00
2019-02-14T10:57:02.053Z,8668.00
2019-02-14T10:58:02.025Z,7876.00
2019-02-14T10:59:02.021Z,6620.00
2019-02-14T11:00:01.999Z,5696.00
2019-02-14T11:01:01.983Z,5440.00
2019-02-14T11:02:01.963Z,4784.00
2019-02-14T11:03:03.662Z,5216.00
2019-02-14T11:04:01.912Z,4440.00
2019-02-14T11:05:01.892Z,4832.00
2019-02-14T11:06:01.889Z,5228.00
2019-02-14T11:07:01.862Z,5724.00
2019-02-14T11:08:01.857Z,5856.00
2019-02-14T11:09:01.824Z,4808.00
2019-02-14T11:10:01.805Z,4108.00
2019-02-14T11:11:01.790Z,4124.00
2019-02-14T11:12:01.767Z,4728.00
2019-02-14T11:13:01.749Z,5164.00
2019-02-14T11:14:01.751Z,5040.00
2019-02-14T11:15:01.718Z,4260.00
2019-02-14T11:16:01.708Z,6676.00
2019-02-14T11:17:01.680Z,5440.00
2019-02-14T11:18:01.677Z,4616.00
2019-02-14T11:19:01.659Z,3916.00
2019-02-14T11:20:01.629Z,3860.00
2019-02-14T11:21:01.620Z,6348.00
2019-02-14T11:22:01.585Z,5224.00
2019-02-14T11:23:01.566Z,5432.00
2019-02-14T11:24:01.554Z,6780.00
2019-02-14T11:25:04.161Z,7808.00
2019-02-14T11:26:01.527Z,7980.00
2019-02-14T11:27:02.160Z,7828.00
2019-02-14T11:28:01.491Z,8132.00
2019-02-14T11:29:01.484Z,8248.00
2019-02-14T11:30:01.456Z,8436.00
2019-02-14T11:31:01.437Z,8352.00
2019-02-14T11:32:01.413Z,8336.00
2019-02-14T11:33:01.398Z,8624.00
2019-02-14T11:34:01.382Z,8436.00
2019-02-14T11:35:01.380Z,9644.00
2019-02-14T11:36:01.348Z,10168.00
2019-02-14T11:37:01.331Z,9172.00
2019-02-14T11:38:01.312Z,8224.00
2019-02-14T11:39:01.306Z,8060.00
2019-02-14T11:40:01.307Z,7488.00
2019-02-14T11:41:01.271Z,11600.00
2019-02-14T11:42:01.258Z,11352.00
2019-02-14T11:43:01.240Z,10404.00
2019-02-14T11:44:02.848Z,9976.00
2019-02-14T11:45:01.210Z,5972.00
2019-02-14T11:46:01.206Z,7132.00
2019-02-14T11:47:01.176Z,6972.00
2019-02-14T11:48:01.165Z,8184.00
2019-02-14T11:49:01.170Z,6060.00
2019-02-14T11:50:01.199Z,5816.00
2019-02-14T11:51:01.142Z,5612.00
2019-02-14T11:52:01.100Z,6444.00
2019-02-14T11:53:01.085Z,5756.00
2019-02-14T11:54:01.076Z,5908.00
2019-02-14T11:55:01.081Z,6348.00
2019-02-14T11:56:01.044Z,7676.00
2019-02-14T11:57:01.031Z,8332.00
2019-02-14T11:58:01.016Z,8752.00
2019-02-14T11:59:01.001Z,7732.00
2019-02-14T12:00:01.035Z,7288.00
2019-02-14T12:01:00.990Z,9852.00
2019-02-14T12:02:02.672Z,8232.00
2019-02-14T12:03:00.936Z,7808.00
2019-02-14T12:04:00.941Z,9756.00
2019-02-14T12:05:00.921Z,9908.00
2019-02-14T12:06:00.899Z,9724.00
2019-02-14T12:07:00.905Z,8960.00
2019-02-14T12:08:00.883Z,8608.00
2019-02-14T12:09:00.880Z,8120.00
2019-02-14T12:10:00.841Z,7344.00
2019-02-14T12:11:00.834Z,7712.00
2019-02-14T12:12:00.829Z,6620.00
2019-02-14T12:13:00.804Z,7724.00
2019-02-14T12:14:00.777Z,8216.00
2019-02-14T12:15:00.763Z,6716.00
2019-02-14T12:16:00.747Z,5716.00
2019-02-14T12:17:00.762Z,5664.00
2019-02-14T12:18:00.723Z,5532.00
2019-02-14T12:19:00.708Z,5396.00
2019-02-14T12:20:00.689Z,5820.00
2019-02-14T12:21:00.673Z,6032.00
2019-02-14T12:22:00.657Z,6088.00
2019-02-14T12:23:00.670Z,5772.00
2019-02-14T12:24:00.635Z,6248.00
2019-02-14T12:25:00.619Z,6404.00
2019-02-14T12:26:00.614Z,7256.00
2019-02-14T12:27:00.588Z,6632.00
2019-02-14T12:28:00.593Z,5604.00
2019-02-14T12:29:00.554Z,5872.00
2019-02-14T12:30:00.538Z,7168.00
2019-02-14T12:31:01.221Z,7732.00
2019-02-14T12:32:00.522Z,7380.00
2019-02-14T12:33:00.494Z,7184.00
2019-02-14T12:34:00.491Z,7220.00
2019-02-14T12:35:00.461Z,6380.00
2019-02-14T12:36:00.471Z,6756.00
2019-02-14T12:37:00.437Z,6396.00
2019-02-14T12:38:00.423Z,6360.00
2019-02-14T12:39:08.303Z,6696.00
2019-02-14T12:40:00.408Z,6812.00
2019-02-14T12:41:00.389Z,6744.00
2019-02-14T12:42:00.365Z,6584.00
2019-02-14T12:43:00.344Z,6544.00
2019-02-14T12:44:00.349Z,6136.00
2019-02-14T12:45:00.320Z,6056.00
2019-02-14T12:46:00.315Z,6228.00